createdAt,value
2022-11-07T00:00:37.943Z,54.96
2022-11-07T00:03:11.679Z,54.63
2022-11-07T00:05:40.997Z,54.55
2022-11-07T00:08:08.462Z,54.64
2022-11-07T00:10:44.233Z,54.55
2022-11-07T00:13:24.311Z,54.56
2022-11-07T00:15:51.660Z,54.67
2022-11-07T00:18:19.038Z,54.67
2022-11-07T00:21:19.049Z,54.77
2022-11-07T00:23:46.453Z,54.54
2022-11-07T00:26:15.059Z,54.67
2022-11-07T00:28:44.899Z,54.47
2022-11-07T00:31:13.659Z,54.88
2022-11-07T00:33:41.977Z,54.79
2022-11-07T00:36:29.299Z,54.85
2022-11-07T00:38:56.776Z,54.76
2022-11-07T00:41:29.257Z,54.71
2022-11-07T00:43:56.833Z,54.81
2022-11-07T00:46:24.622Z,54.72
2022-11-07T00:49:24.917Z,55.06
2022-11-07T00:51:52.304Z,54.67
2022-11-07T00:54:19.741Z,54.69
2022-11-07T00:56:51.185Z,54.91
2022-11-07T00:59:18.672Z,54.94
2022-11-07T01:01:57.480Z,54.95
2022-11-07T01:04:48.817Z,54.95
2022-11-07T01:07:16.314Z,54.65
2022-11-07T01:09:43.681Z,54.96
2022-11-07T01:12:12.198Z,54.90
2022-11-07T01:14:39.613Z,54.87
2022-11-07T01:17:07.123Z,54.79
2022-11-07T01:19:34.558Z,54.96
2022-11-07T01:22:16.447Z,55.01
2022-11-07T01:24:52.885Z,54.93
2022-11-07T01:27:22.349Z,54.88
2022-11-07T01:29:49.747Z,54.96
2022-11-07T01:32:22.964Z,54.90
2022-11-07T01:34:58.203Z,55.05
2022-11-07T01:37:25.643Z,55.17
2022-11-07T01:39:52.994Z,54.90
2022-11-07T01:42:29.345Z,55.01
2022-11-07T01:44:58.834Z,54.98
2022-11-07T01:47:31.763Z,54.99
2022-11-07T01:50:01.401Z,54.86
2022-11-07T01:53:00.009Z,55.06
2022-11-07T01:55:33.477Z,54.96
2022-11-07T01:58:04.826Z,54.96
2022-11-07T02:00:37.512Z,55.16
2022-11-07T02:03:09.949Z,54.89
2022-11-07T02:05:56.602Z,54.88
2022-11-07T02:08:24.348Z,54.71
2022-11-07T02:10:57.313Z,54.91
2022-11-07T02:13:30.140Z,54.91
2022-11-07T02:16:00.294Z,55.00
2022-11-07T02:18:34.927Z,54.95
2022-11-07T02:21:10.139Z,55.07
2022-11-07T02:24:12.968Z,55.12
2022-11-07T02:26:40.992Z,54.90
2022-11-07T02:29:13.699Z,54.94
2022-11-07T02:31:41.212Z,54.90
2022-11-07T02:34:08.644Z,54.90
2022-11-07T02:36:36.165Z,55.11
2022-11-07T02:39:03.654Z,54.89
2022-11-07T02:41:37.374Z,55.16
2022-11-07T02:44:09.008Z,55.02
2022-11-07T02:46:37.086Z,55.07
2022-11-07T02:49:06.594Z,54.94
2022-11-07T02:51:34.039Z,55.01
2022-11-07T02:54:01.582Z,55.12
2022-11-07T02:56:31.100Z,54.95
2022-11-07T02:58:58.451Z,55.09
2022-11-07T03:01:26.001Z,55.06
2022-11-07T03:04:00.833Z,55.05
2022-11-07T03:06:28.209Z,55.08
2022-11-07T03:08:57.799Z,55.11
2022-11-07T03:11:25.251Z,55.07
2022-11-07T03:13:55.128Z,55.10
2022-11-07T03:16:23.675Z,54.99
2022-11-07T03:18:51.056Z,55.01
2022-11-07T03:21:19.797Z,54.90
2022-11-07T03:23:47.236Z,54.99
2022-11-07T03:26:16.672Z,54.78
2022-11-07T03:28:44.042Z,55.02
2022-11-07T03:31:17.638Z,55.02
2022-11-07T03:33:44.993Z,55.09
2022-11-07T03:36:12.540Z,55.08
2022-11-07T03:38:39.944Z,54.89
2022-11-07T03:41:07.349Z,54.84
2022-11-07T03:43:36.987Z,54.88
2022-11-07T03:46:04.350Z,55.18
2022-11-07T03:48:35.664Z,55.12
2022-11-07T03:51:03.159Z,55.27
2022-11-07T03:53:30.765Z,54.74
2022-11-07T03:55:58.420Z,55.24
2022-11-07T03:58:27.936Z,54.91
2022-11-07T04:00:55.346Z,55.04
2022-11-07T04:03:22.738Z,54.94
2022-11-07T04:06:11.887Z,55.32
2022-11-07T04:08:39.326Z,55.04
2022-11-07T04:11:06.783Z,54.89
2022-11-07T04:14:26.388Z,55.20
2022-11-07T04:17:13.421Z,55.00
2022-11-07T04:19:40.865Z,55.01
2022-11-07T04:22:08.337Z,55.11
2022-11-07T04:24:35.733Z,55.07
2022-11-07T04:27:22.861Z,55.10
2022-11-07T04:29:50.254Z,55.09
2022-11-07T04:32:17.654Z,55.06
2022-11-07T04:34:47.192Z,55.15
2022-11-07T04:37:14.519Z,55.12
2022-11-07T04:39:41.859Z,55.09
2022-11-07T04:42:13.444Z,55.16
2022-11-07T04:44:40.872Z,54.96
2022-11-07T04:47:09.440Z,54.97
2022-11-07T04:49:36.865Z,54.90
2022-11-07T04:52:04.474Z,55.02
2022-11-07T04:54:31.906Z,54.94
2022-11-07T04:56:59.261Z,55.00
2022-11-07T04:59:29.917Z,55.01
2022-11-07T05:01:57.415Z,55.03
2022-11-07T05:04:25.174Z,55.35
2022-11-07T05:06:52.585Z,55.25
2022-11-07T05:09:22.146Z,55.08
2022-11-07T05:11:49.551Z,55.00
2022-11-07T05:14:17.063Z,55.12
2022-11-07T05:16:44.812Z,55.20
2022-11-07T05:19:19.367Z,55.20
2022-11-07T05:21:47.173Z,55.19
2022-11-07T05:24:15.669Z,55.13
2022-11-07T05:26:43.771Z,55.29
2022-11-07T05:29:13.410Z,55.21
2022-11-07T05:31:40.764Z,55.24
2022-11-07T05:34:13.516Z,55.25
2022-11-07T05:36:41.942Z,55.21
2022-11-07T05:39:09.516Z,55.16
2022-11-07T05:41:36.870Z,55.24
2022-11-07T05:44:04.471Z,55.07
2022-11-07T05:46:31.849Z,55.40
2022-11-07T05:49:09.524Z,55.27
2022-11-07T05:51:36.936Z,55.30
2022-11-07T05:54:04.419Z,55.14
2022-11-07T05:56:45.342Z,55.41
2022-11-07T05:59:12.846Z,55.16
2022-11-07T06:01:41.503Z,55.29
2022-11-07T06:04:09.076Z,55.29
2022-11-07T06:06:36.544Z,55.43
2022-11-07T06:09:05.023Z,55.16
2022-11-07T06:11:32.966Z,55.16
2022-11-07T06:14:00.370Z,55.39
2022-11-07T06:16:29.859Z,55.26
2022-11-07T06:18:57.223Z,55.28
2022-11-07T06:21:24.608Z,55.18
2022-11-07T06:23:53.121Z,55.34
2022-11-07T06:26:20.614Z,55.32
2022-11-07T06:28:49.014Z,55.38
2022-11-07T06:31:16.505Z,55.31
2022-11-07T06:33:51.384Z,55.26
2022-11-07T06:36:19.163Z,55.38
2022-11-07T06:38:51.648Z,55.26
2022-11-07T06:41:31.242Z,55.54
2022-11-07T06:43:58.680Z,55.53
2022-11-07T06:46:32.298Z,55.30
2022-11-07T06:48:59.701Z,55.35
2022-11-07T06:51:42.814Z,55.24
2022-11-07T06:54:14.265Z,55.51
2022-11-07T06:56:49.966Z,55.29
2022-11-07T06:59:17.317Z,55.42
2022-11-07T07:01:50.740Z,55.49
2022-11-07T07:04:18.138Z,55.39
2022-11-07T07:06:46.027Z,55.54
2022-11-07T07:09:13.498Z,55.63
2022-11-07T07:11:48.331Z,55.35
2022-11-07T07:14:15.756Z,55.40
2022-11-07T07:16:43.153Z,55.12
2022-11-07T07:19:12.370Z,55.50
2022-11-07T07:21:39.849Z,55.12
2022-11-07T07:24:07.726Z,55.43
2022-11-07T07:26:37.160Z,55.31
2022-11-07T07:29:04.506Z,55.21
2022-11-07T07:31:32.361Z,55.14
2022-11-07T07:34:00.095Z,55.33
2022-11-07T07:36:27.657Z,55.47
2022-11-07T07:38:56.092Z,55.18
2022-11-07T07:41:23.481Z,55.40
2022-11-07T07:43:51.031Z,55.32
2022-11-07T07:46:22.831Z,55.38
2022-11-07T07:48:50.200Z,55.40
2022-11-07T07:51:19.785Z,55.21
2022-11-07T07:53:47.162Z,55.07
2022-11-07T07:56:17.679Z,55.13
2022-11-07T07:58:45.900Z,55.34
2022-11-07T08:01:13.363Z,55.32
2022-11-07T08:04:00.248Z,55.41
2022-11-07T08:06:30.525Z,55.39
2022-11-07T08:08:58.134Z,55.44
2022-11-07T08:11:29.675Z,55.16
2022-11-07T08:14:08.401Z,55.24
2022-11-07T08:16:36.197Z,55.34
2022-11-07T08:19:03.561Z,55.24
2022-11-07T08:21:36.637Z,55.06
2022-11-07T08:24:04.272Z,54.99
2022-11-07T08:26:34.333Z,55.06
2022-11-07T08:29:01.770Z,54.96
2022-11-07T08:31:29.388Z,55.11
2022-11-07T08:34:00.677Z,55.10
2022-11-07T08:36:28.539Z,55.17
2022-11-07T08:38:56.399Z,55.12
2022-11-07T08:41:24.889Z,55.18
2022-11-07T08:43:52.288Z,55.20
2022-11-07T08:46:19.912Z,55.14
2022-11-07T08:48:47.299Z,55.10
2022-11-07T08:51:14.674Z,54.91
2022-11-07T08:53:42.121Z,54.89
2022-11-07T08:56:10.203Z,55.00
2022-11-07T08:58:38.174Z,54.75
2022-11-07T09:01:10.813Z,55.04
2022-11-07T09:03:46.158Z,55.00
2022-11-07T09:06:16.762Z,54.66
2022-11-07T09:08:44.702Z,54.80
2022-11-07T09:11:15.538Z,54.93
2022-11-07T09:13:43.178Z,54.87
2022-11-07T09:16:10.773Z,54.61
2022-11-07T09:18:38.693Z,54.74
2022-11-07T09:21:06.226Z,54.93
2022-11-07T09:23:33.728Z,54.58
2022-11-07T09:26:01.387Z,54.51
2022-11-07T09:28:30.938Z,54.38
2022-11-07T09:30:59.159Z,54.28
2022-11-07T09:33:26.904Z,54.44
2022-11-07T09:35:54.829Z,54.34
2022-11-07T09:38:22.453Z,54.63
2022-11-07T09:41:08.008Z,54.50
2022-11-07T09:43:57.512Z,54.52
2022-11-07T09:46:24.842Z,54.65
2022-11-07T09:48:59.784Z,54.51
2022-11-07T09:51:39.003Z,54.65
2022-11-07T09:54:20.151Z,54.38
2022-11-07T09:56:47.900Z,54.45
2022-11-07T09:59:28.627Z,54.30
2022-11-07T10:01:56.203Z,54.52
2022-11-07T10:04:26.191Z,54.46
2022-11-07T10:07:02.057Z,54.49
2022-11-07T10:09:35.000Z,54.17
2022-11-07T10:12:30.543Z,54.12
2022-11-07T10:14:58.962Z,53.98
2022-11-07T10:17:54.025Z,54.04
2022-11-07T10:20:41.721Z,54.39
2022-11-07T10:23:50.784Z,53.97
2022-11-07T10:26:20.782Z,53.93
2022-11-07T10:29:11.216Z,53.98
2022-11-07T10:31:46.407Z,53.91
2022-11-07T10:34:38.434Z,54.11
2022-11-07T10:37:06.217Z,53.95
2022-11-07T10:39:34.184Z,53.84
2022-11-07T10:42:06.921Z,53.95
2022-11-07T10:44:35.528Z,54.02
2022-11-07T10:47:03.608Z,53.55
2022-11-07T10:49:32.576Z,53.64
2022-11-07T10:52:15.255Z,53.82
2022-11-07T10:54:44.883Z,53.92
2022-11-07T10:57:17.158Z,53.65
2022-11-07T10:59:53.744Z,53.46
2022-11-07T11:02:27.209Z,53.61
2022-11-07T11:05:00.510Z,53.73
2022-11-07T11:07:41.113Z,53.73
2022-11-07T11:10:21.885Z,53.29
2022-11-07T11:12:49.550Z,53.29
2022-11-07T11:15:20.454Z,53.41
2022-11-07T11:18:07.589Z,53.22
2022-11-07T11:20:38.417Z,53.21
2022-11-07T11:23:13.636Z,53.32
2022-11-07T11:25:46.075Z,53.28
2022-11-07T11:28:20.734Z,53.43
2022-11-07T11:30:51.391Z,53.56
2022-11-07T11:33:22.859Z,53.55
2022-11-07T11:35:55.971Z,53.19
2022-11-07T11:38:37.504Z,53.45
2022-11-07T11:41:36.263Z,53.16
2022-11-07T11:44:44.325Z,53.02
2022-11-07T11:47:40.409Z,53.37
2022-11-07T11:50:21.242Z,53.26
2022-11-07T11:52:48.826Z,52.97
2022-11-07T11:55:18.195Z,53.03
2022-11-07T11:58:06.889Z,52.84
2022-11-07T12:00:40.512Z,52.63
2022-11-07T12:03:49.436Z,52.93
2022-11-07T12:06:21.565Z,52.83
2022-11-07T12:09:17.017Z,52.67
2022-11-07T12:12:15.165Z,52.69
2022-11-07T12:15:13.113Z,52.72
2022-11-07T12:17:55.861Z,52.55
2022-11-07T12:20:50.295Z,52.60
2022-11-07T12:23:38.940Z,52.38
2022-11-07T12:26:09.949Z,52.72
2022-11-07T12:29:04.159Z,52.64
2022-11-07T12:31:33.723Z,52.70
2022-11-07T12:34:23.856Z,52.62
2022-11-07T12:37:07.554Z,52.57
2022-11-07T12:39:59.323Z,52.68
2022-11-07T12:42:47.846Z,52.57
2022-11-07T12:45:26.542Z,52.71
2022-11-07T12:48:17.309Z,52.73
2022-11-07T12:50:56.844Z,52.48
2022-11-07T12:53:52.245Z,52.51
2022-11-07T12:56:22.275Z,52.36
2022-11-07T12:58:51.832Z,52.30
2022-11-07T13:01:28.154Z,52.36
2022-11-07T13:04:16.410Z,52.39
2022-11-07T13:06:46.037Z,52.72
2022-11-07T13:09:30.606Z,52.85
2022-11-07T13:12:16.865Z,52.54
2022-11-07T13:14:45.912Z,52.67
2022-11-07T13:17:23.610Z,52.49
2022-11-07T13:20:00.242Z,52.17
2022-11-07T13:22:40.357Z,51.84
2022-11-07T13:25:17.768Z,51.47
2022-11-07T13:27:59.686Z,51.20
2022-11-07T13:30:30.148Z,51.08
2022-11-07T13:32:59.639Z,50.73
2022-11-07T13:35:29.971Z,50.88
2022-11-07T13:38:08.813Z,50.59
2022-11-07T13:40:39.645Z,50.43
2022-11-07T13:43:07.098Z,50.30
2022-11-07T13:45:43.346Z,49.98
2022-11-07T13:48:17.084Z,49.80
2022-11-07T13:50:49.990Z,49.57
2022-11-07T13:53:25.091Z,48.40
2022-11-07T13:56:01.229Z,48.93
2022-11-07T13:58:30.316Z,48.62
2022-11-07T14:01:18.163Z,47.70
2022-11-07T14:03:45.957Z,48.08
2022-11-07T14:06:14.860Z,47.75
2022-11-07T14:08:46.093Z,47.40
2022-11-07T14:11:25.066Z,47.49
2022-11-07T14:13:54.364Z,47.35
2022-11-07T14:16:25.393Z,47.44
2022-11-07T14:19:14.791Z,47.11
2022-11-07T14:21:45.135Z,47.44
2022-11-07T14:24:26.044Z,47.09
2022-11-07T14:27:07.336Z,47.11
2022-11-07T14:29:34.950Z,47.38
2022-11-07T14:32:06.165Z,47.28
2022-11-07T14:34:43.952Z,47.33
2022-11-07T14:37:15.028Z,47.50
2022-11-07T14:39:44.298Z,47.48
2022-11-07T14:42:22.217Z,47.52
2022-11-07T14:44:54.874Z,47.65
2022-11-07T14:47:32.393Z,47.85
2022-11-07T14:50:01.990Z,47.74
2022-11-07T14:52:34.965Z,47.82
2022-11-07T14:55:11.675Z,47.80
2022-11-07T14:57:40.111Z,48.08
2022-11-07T15:00:16.820Z,48.14
2022-11-07T15:02:46.686Z,48.15
2022-11-07T15:05:38.518Z,48.09
2022-11-07T15:08:05.951Z,48.35
2022-11-07T15:10:38.945Z,48.21
2022-11-07T15:13:24.477Z,48.38
2022-11-07T15:16:16.628Z,48.44
2022-11-07T15:18:46.593Z,48.68
2022-11-07T15:21:26.608Z,48.70
2022-11-07T15:23:54.290Z,48.66
2022-11-07T15:26:24.294Z,48.73
2022-11-07T15:28:53.794Z,48.72
2022-11-07T15:31:25.324Z,48.68
2022-11-07T15:33:54.004Z,48.92
2022-11-07T15:36:21.749Z,48.88
2022-11-07T15:38:50.712Z,48.96
2022-11-07T15:41:19.100Z,48.90
2022-11-07T15:43:46.706Z,49.13
2022-11-07T15:46:28.934Z,49.08
2022-11-07T15:48:56.869Z,49.17
2022-11-07T15:51:24.668Z,48.87
2022-11-07T15:53:52.051Z,49.03
2022-11-07T15:56:20.862Z,49.25
2022-11-07T15:58:48.517Z,49.18
2022-11-07T16:01:17.331Z,49.53
2022-11-07T16:03:44.812Z,49.06
2022-11-07T16:06:31.115Z,49.21
2022-11-07T16:08:58.752Z,49.20
2022-11-07T16:11:26.369Z,49.49
2022-11-07T16:14:14.816Z,49.30
2022-11-07T16:16:42.787Z,49.40
2022-11-07T16:19:18.260Z,49.56
2022-11-07T16:21:47.979Z,49.17
2022-11-07T16:24:16.577Z,49.63
2022-11-07T16:26:46.131Z,49.25
2022-11-07T16:29:14.452Z,49.40
2022-11-07T16:31:42.264Z,49.39
2022-11-07T16:34:12.895Z,49.56
2022-11-07T16:36:40.545Z,49.75
2022-11-07T16:39:19.249Z,49.70
2022-11-07T16:41:47.943Z,49.80
2022-11-07T16:44:15.487Z,49.57
2022-11-07T16:46:43.074Z,49.80
2022-11-07T16:49:31.239Z,49.95
2022-11-07T16:51:59.622Z,49.68
2022-11-07T16:54:28.121Z,49.69
2022-11-07T16:56:56.591Z,50.10
2022-11-07T16:59:24.558Z,49.92
2022-11-07T17:01:52.484Z,49.99
2022-11-07T17:04:20.166Z,50.08
2022-11-07T17:06:47.781Z,50.03
2022-11-07T17:09:20.561Z,49.98
2022-11-07T17:11:48.008Z,49.85
2022-11-07T17:14:15.477Z,49.92
2022-11-07T17:16:44.561Z,49.97
2022-11-07T17:19:13.199Z,50.11
2022-11-07T17:21:46.268Z,50.21
2022-11-07T17:24:13.954Z,50.26
2022-11-07T17:26:41.464Z,50.29
2022-11-07T17:29:14.994Z,50.09
2022-11-07T17:31:43.084Z,49.99
2022-11-07T17:34:10.717Z,50.18
2022-11-07T17:36:43.123Z,50.42
2022-11-07T17:39:16.321Z,50.45
2022-11-07T17:41:45.309Z,50.07
2022-11-07T17:44:13.310Z,50.43
2022-11-07T17:46:43.305Z,50.47
2022-11-07T17:49:13.435Z,50.64
2022-11-07T17:51:42.415Z,50.48
2022-11-07T17:54:11.694Z,50.42
2022-11-07T17:56:39.846Z,50.72
2022-11-07T17:59:11.141Z,50.37
2022-11-07T18:01:40.736Z,50.59
2022-11-07T18:04:10.061Z,50.77
2022-11-07T18:06:39.431Z,50.76
2022-11-07T18:09:08.934Z,50.79
2022-11-07T18:11:37.473Z,50.55
2022-11-07T18:14:05.071Z,50.65
2022-11-07T18:16:34.781Z,50.79
2022-11-07T18:19:02.418Z,50.75
2022-11-07T18:21:30.173Z,50.86
2022-11-07T18:23:58.208Z,50.98
2022-11-07T18:26:31.404Z,51.04
2022-11-07T18:29:04.179Z,51.10
2022-11-07T18:31:31.858Z,50.92
2022-11-07T18:34:00.972Z,50.84
2022-11-07T18:36:30.775Z,50.96
2022-11-07T18:39:03.851Z,51.10
2022-11-07T18:41:31.412Z,51.06
2022-11-07T18:44:04.238Z,51.13
2022-11-07T18:46:33.826Z,50.96
2022-11-07T18:49:02.828Z,51.16
2022-11-07T18:51:30.277Z,50.89
2022-11-07T18:54:00.928Z,50.90
2022-11-07T18:56:28.355Z,51.05
2022-11-07T18:58:57.295Z,50.86
2022-11-07T19:01:30.914Z,51.20
2022-11-07T19:04:00.705Z,51.22
2022-11-07T19:06:29.786Z,51.18
2022-11-07T19:08:57.527Z,51.25
2022-11-07T19:11:29.470Z,51.34
2022-11-07T19:14:00.491Z,51.28
2022-11-07T19:16:28.641Z,51.37
2022-11-07T19:18:58.179Z,51.50
2022-11-07T19:21:25.664Z,51.43
2022-11-07T19:23:53.254Z,51.20
2022-11-07T19:26:20.695Z,51.44
2022-11-07T19:28:48.461Z,50.99
2022-11-07T19:31:16.265Z,51.25
2022-11-07T19:33:45.300Z,51.42
2022-11-07T19:36:15.732Z,51.26
2022-11-07T19:38:44.132Z,51.42
2022-11-07T19:41:12.760Z,51.20
2022-11-07T19:43:42.599Z,51.52
2022-11-07T19:46:13.615Z,51.28
2022-11-07T19:48:41.078Z,51.70
2022-11-07T19:51:19.926Z,51.52
2022-11-07T19:53:57.119Z,51.36
2022-11-07T19:56:26.309Z,51.82
2022-11-07T19:58:54.562Z,51.69
2022-11-07T20:01:25.355Z,51.84
2022-11-07T20:03:54.072Z,51.41
2022-11-07T20:06:35.516Z,51.97
2022-11-07T20:09:06.338Z,51.86
2022-11-07T20:11:33.877Z,51.71
2022-11-07T20:14:03.707Z,51.67
2022-11-07T20:16:36.877Z,52.03
2022-11-07T20:19:04.811Z,52.02
2022-11-07T20:21:33.834Z,51.58
2022-11-07T20:24:01.410Z,51.72
2022-11-07T20:26:32.946Z,51.60
2022-11-07T20:29:00.440Z,51.89
2022-11-07T20:31:30.568Z,51.96
2022-11-07T20:33:59.644Z,51.68
2022-11-07T20:36:27.581Z,51.65
2022-11-07T20:38:56.390Z,51.81
2022-11-07T20:41:24.553Z,51.96
2022-11-07T20:43:56.832Z,52.02
2022-11-07T20:46:24.349Z,51.84
2022-11-07T20:48:52.197Z,52.10
2022-11-07T20:51:22.118Z,51.97
2022-11-07T20:53:50.590Z,52.07
2022-11-07T20:56:23.188Z,51.96
2022-11-07T20:58:51.167Z,52.09
2022-11-07T21:01:24.812Z,52.04
2022-11-07T21:03:52.832Z,52.05
2022-11-07T21:06:20.303Z,52.03
2022-11-07T21:08:48.672Z,52.09
2022-11-07T21:11:16.778Z,51.99
2022-11-07T21:13:51.182Z,52.13
2022-11-07T21:16:23.599Z,51.96
2022-11-07T21:18:52.282Z,52.31
2022-11-07T21:21:24.907Z,52.32
2022-11-07T21:23:52.480Z,52.16
2022-11-07T21:26:26.995Z,52.01
2022-11-07T21:28:54.586Z,52.01
2022-11-07T21:31:27.107Z,52.08
2022-11-07T21:33:55.811Z,52.28
2022-11-07T21:36:28.727Z,52.22
2022-11-07T21:38:57.343Z,52.35
2022-11-07T21:41:25.341Z,52.27
2022-11-07T21:43:54.091Z,52.35
2022-11-07T21:46:30.468Z,52.14
2022-11-07T21:48:59.201Z,52.03
2022-11-07T21:51:28.895Z,52.02
2022-11-07T21:53:57.060Z,52.23
2022-11-07T21:56:28.380Z,52.35
2022-11-07T21:59:01.245Z,52.36
2022-11-07T22:01:29.913Z,52.10
2022-11-07T22:04:07.657Z,52.47
2022-11-07T22:06:38.642Z,52.31
2022-11-07T22:09:09.633Z,52.36
2022-11-07T22:11:37.175Z,52.44
2022-11-07T22:14:05.236Z,52.53
2022-11-07T22:16:36.246Z,52.25
2022-11-07T22:19:05.256Z,52.27
2022-11-07T22:21:39.157Z,52.63
2022-11-07T22:24:06.852Z,52.06
2022-11-07T22:26:35.631Z,52.53
2022-11-07T22:29:03.158Z,52.28
2022-11-07T22:31:42.765Z,52.68
2022-11-07T22:34:10.299Z,52.71
2022-11-07T22:36:37.981Z,52.35
2022-11-07T22:39:10.382Z,52.35
2022-11-07T22:41:37.735Z,52.54
2022-11-07T22:44:05.181Z,52.28
2022-11-07T22:46:40.794Z,52.45
2022-11-07T22:49:08.126Z,52.60
2022-11-07T22:51:50.630Z,52.60
2022-11-07T22:54:18.058Z,52.50
2022-11-07T22:56:45.459Z,52.45
2022-11-07T22:59:19.103Z,52.66
2022-11-07T23:01:46.603Z,52.61
2022-11-07T23:04:16.219Z,52.84
2022-11-07T23:06:43.966Z,52.66
2022-11-07T23:09:16.212Z,52.85
2022-11-07T23:11:46.996Z,52.51
2022-11-07T23:14:20.894Z,52.65
2022-11-07T23:16:50.829Z,52.52
2022-11-07T23:19:21.074Z,52.82
2022-11-07T23:21:52.504Z,52.75
2022-11-07T23:24:20.806Z,52.85
2022-11-07T23:26:49.416Z,52.85
2022-11-07T23:29:19.951Z,52.89
2022-11-07T23:31:52.801Z,52.70
2022-11-07T23:34:21.375Z,52.84
2022-11-07T23:36:52.728Z,53.04
2022-11-07T23:39:26.385Z,52.87
2022-11-07T23:41:54.107Z,52.69
2022-11-07T23:44:21.745Z,53.00
2022-11-07T23:47:15.901Z,52.83
2022-11-07T23:50:06.128Z,53.10
2022-11-07T23:52:33.645Z,53.13
2022-11-07T23:55:19.597Z,53.09
2022-11-07T23:58:08.840Z,52.88
